Alice, ND

1:37 AM CST on November 29, 2014 (GMT -0600)
Valley City | Change Station
CLOSE
Current Station
Airport
Location: Valley City,
Elevation: 1401 ft
Nearby Weather Stations
Active Advisory: Special Statement

Elev 1401 ft 46.94 °N, 98.02 °W | Updated 22 minutes ago

Clear
Clear
16 °F
Feels Like 4 °F
N
9
Wind Variable Wind from SSE

Today
High -- | Low -- °F
--% Chance of Precip.
Yesterday
High -- | Low -- °F
Precip. -- in
7:52 AM 4:45 PM
Waxing Crescent, 49% visible
Pressure 29.45 in
Visibility 8.0 miles
Clouds Few 12000 ft
Windchill 4 °F
Dew Point 16 °F
Humidity 100%
Rainfall 0.00 in
Snow Depth Not available.
UV 0 out of 12
Pollen .10 out of 12
Air Quality Not available.
Flu Activity Not available.
METAR KBAC 290715Z AUTO 16008KT 8SM FEW120 M09/M09 A2945 RMK AO2

More Conditions Fewer Conditions

Pressure 29.45 in
Visibility 8.0 miles
Clouds Few 12000 ft
Windchill 4 °F
Dew Point 16 °F
Humidity 100%
Rainfall 0.00 in
Snow Depth Not available.
UV 0 out of 12
Pollen .10 out of 12
Air Quality Not available.
Flu Activity Not available.
METAR KBAC 290715Z AUTO 16008KT 8SM FEW120 M09/M09 A2945 RMK AO2

More Conditions Fewer Conditions

10-Day Weather Forecast

Almanac

Astronomy

Nov. 29, 2014 Rise Set
Actual Time
Civil Twilight
Nautical Twilight
Astronomical Twilight
Moon
Length of Visible Light
Length of Day
Tomorrow will be .
, % of the Moon is Illuminated

Today's Extremes

State Highs State Lows

Community

WunderPhotos

Upload Photos

1,774,432 photos uploaded!

WunderBlogs® & News

Nearby

Air Quality

  Air Quality AQ Index Pollutant
Not available.

Snow Depth

Station Depth Elevation

Earthquake Activity

City Distance Mag. Time & Date
Minimum magnitude displayed is 2.5.

Coastal Water Temperatures

Place Temperature

Nearby Weather Stations